Anabel, Missouri
Current Conditions -  °F | °C
As of 10:55 PM on Wednesday 22 Oct 2014 (Local Time) from KIRK Reporting Station
Clear Clear  
Wind Chill: 43°   Ceiling: Unl
Heat Index: 47°   Visibility: 10mi
Dew Point: 42°   Wind: 8mph
Humidity: 83%   Direction: 140°SE
Pressure: 30.19"   Gusts: NA
Location:  39.75°N, 92.34°W
Report Text: KIRK 230355Z AUTO 14007KT 10SM CLR 08/06 A3019 RMK AO2 SLP227 T00830056
Loading
Personal Weather Stations






























Interactive Weather Map New forecast layout! Learn more

10-Day Weather Forecast

Advertisements
Track Severe Weather on mobile